createdAt,value
2023-03-29T00:01:52.643Z,6.20
2023-03-29T00:04:42.774Z,6.20
2023-03-29T00:07:33.922Z,6.10
2023-03-29T00:10:23.905Z,6.10
2023-03-29T00:13:12.412Z,6.10
2023-03-29T00:16:00.884Z,6.10
2023-03-29T00:18:51.553Z,6.10
2023-03-29T00:21:41.379Z,6.10
2023-03-29T00:24:29.873Z,6.10
2023-03-29T00:27:18.480Z,6.10
2023-03-29T00:30:10.030Z,6.10
2023-03-29T00:32:58.647Z,6.10
2023-03-29T00:35:48.322Z,6.10
2023-03-29T00:38:38.868Z,6.00
2023-03-29T00:41:27.451Z,6.00
2023-03-29T00:45:01.960Z,6.00
2023-03-29T00:47:55.511Z,6.00
2023-03-29T00:50:50.195Z,5.90
2023-03-29T00:53:48.345Z,5.90
2023-03-29T00:56:41.433Z,5.90
2023-03-29T00:59:35.474Z,5.90
2023-03-29T01:02:34.485Z,5.90
2023-03-29T01:05:30.849Z,5.90
2023-03-29T01:08:26.568Z,5.90
2023-03-29T01:11:23.528Z,5.80
2023-03-29T01:14:17.457Z,5.90
2023-03-29T01:17:07.156Z,5.80
2023-03-29T01:20:08.296Z,5.80
2023-03-29T01:23:19.301Z,5.80
2023-03-29T01:26:24.937Z,5.80
2023-03-29T01:29:23.361Z,5.80
2023-03-29T01:32:19.165Z,5.80
2023-03-29T01:35:14.314Z,5.80
2023-03-29T01:38:09.697Z,5.80
2023-03-29T01:40:58.454Z,5.80
2023-03-29T01:43:53.871Z,5.80
2023-03-29T01:46:48.670Z,5.80
2023-03-29T01:49:43.140Z,5.80
2023-03-29T01:52:37.429Z,5.70
2023-03-29T01:55:32.398Z,5.80
2023-03-29T01:58:26.695Z,5.80
2023-03-29T02:01:22.988Z,5.70
2023-03-29T02:04:17.604Z,5.70
2023-03-29T02:07:10.496Z,5.70
2023-03-29T02:10:00.458Z,5.70
2023-03-29T02:12:49.028Z,5.70
2023-03-29T02:15:37.541Z,5.80
2023-03-29T02:18:26.599Z,5.80
2023-03-29T02:21:22.837Z,5.70
2023-03-29T02:24:17.316Z,5.70
2023-03-29T02:27:06.379Z,5.70
2023-03-29T02:29:56.610Z,5.70
2023-03-29T02:32:54.187Z,5.70
2023-03-29T02:35:51.136Z,5.80
2023-03-29T02:38:42.073Z,5.80
2023-03-29T02:41:31.157Z,5.80
2023-03-29T02:44:25.662Z,5.80
2023-03-29T02:47:21.817Z,5.80
2023-03-29T02:50:11.330Z,5.80
2023-03-29T02:53:05.286Z,5.80
2023-03-29T02:55:56.735Z,5.80
2023-03-29T02:58:45.193Z,5.80
2023-03-29T03:01:33.880Z,5.80
2023-03-29T03:04:23.372Z,5.80
2023-03-29T03:07:11.953Z,5.80
2023-03-29T03:10:00.956Z,5.80
2023-03-29T03:12:51.011Z,5.80
2023-03-29T03:15:42.760Z,5.80
2023-03-29T03:18:31.389Z,5.80
2023-03-29T03:21:20.052Z,5.80
2023-03-29T03:24:08.849Z,5.80
2023-03-29T03:26:58.052Z,5.80
2023-03-29T03:29:48.585Z,5.80
2023-03-29T03:32:39.954Z,5.80
2023-03-29T03:35:38.599Z,5.80
2023-03-29T03:38:29.343Z,5.80
2023-03-29T03:41:20.089Z,5.90
2023-03-29T03:44:08.724Z,5.90
2023-03-29T03:46:58.780Z,5.90
2023-03-29T03:49:47.594Z,5.90
2023-03-29T03:52:37.638Z,5.90
2023-03-29T03:55:29.974Z,5.90
2023-03-29T03:58:30.295Z,5.90
2023-03-29T04:01:19.611Z,5.90
2023-03-29T04:04:19.827Z,5.90
2023-03-29T04:07:34.327Z,6.00
2023-03-29T04:10:38.596Z,6.00
2023-03-29T04:13:34.472Z,6.00
2023-03-29T04:16:40.031Z,6.00
2023-03-29T04:19:49.816Z,6.00
2023-03-29T04:22:38.718Z,6.00
2023-03-29T04:25:27.686Z,6.00
2023-03-29T04:28:45.205Z,6.10
2023-03-29T04:31:49.578Z,6.10
2023-03-29T04:34:58.202Z,6.10
2023-03-29T04:37:48.287Z,6.10
2023-03-29T04:40:39.062Z,6.10
2023-03-29T04:43:34.444Z,6.10
2023-03-29T04:46:33.396Z,6.10
2023-03-29T04:49:41.539Z,6.20
2023-03-29T04:52:36.925Z,6.20
2023-03-29T04:55:26.782Z,6.20
2023-03-29T04:58:27.142Z,6.20
2023-03-29T05:01:18.913Z,6.20
2023-03-29T05:04:15.035Z,6.20
2023-03-29T05:07:17.883Z,6.30
2023-03-29T05:10:09.838Z,6.30
2023-03-29T05:12:58.321Z,6.30
2023-03-29T05:15:47.521Z,6.30
2023-03-29T05:18:36.233Z,6.30
2023-03-29T05:21:27.747Z,6.30
2023-03-29T05:24:18.880Z,6.30
2023-03-29T05:27:22.740Z,6.30
2023-03-29T05:30:22.340Z,6.40
2023-03-29T05:33:20.846Z,6.40
2023-03-29T05:36:13.437Z,6.40
2023-03-29T05:39:07.333Z,6.40
2023-03-29T05:41:56.976Z,6.50
2023-03-29T05:44:54.559Z,6.50
2023-03-29T05:47:43.106Z,6.50
2023-03-29T05:50:31.851Z,6.50
2023-03-29T05:53:25.432Z,6.50
2023-03-29T05:56:15.959Z,6.50
2023-03-29T05:59:04.884Z,6.50
2023-03-29T06:01:54.759Z,6.50
2023-03-29T06:04:43.615Z,6.50
2023-03-29T06:07:51.988Z,6.50
2023-03-29T06:11:01.829Z,6.50
2023-03-29T06:14:13.522Z,6.50
2023-03-29T06:17:08.654Z,6.60
2023-03-29T06:19:57.797Z,6.60
2023-03-29T06:22:48.355Z,6.60
2023-03-29T06:25:37.033Z,6.60
2023-03-29T06:28:26.719Z,6.60
2023-03-29T06:31:15.566Z,6.60
2023-03-29T06:34:06.610Z,6.60
2023-03-29T06:37:14.362Z,6.60
2023-03-29T06:40:06.315Z,6.70
2023-03-29T06:43:03.456Z,6.70
2023-03-29T06:46:14.368Z,6.70
2023-03-29T06:49:18.541Z,6.70
2023-03-29T06:52:20.625Z,6.80
2023-03-29T06:55:11.834Z,6.80
2023-03-29T06:58:02.715Z,6.80
2023-03-29T07:00:51.676Z,6.80
2023-03-29T07:03:49.233Z,6.90
2023-03-29T07:06:48.441Z,6.90
2023-03-29T07:09:39.889Z,6.90
2023-03-29T07:12:52.768Z,7.00
2023-03-29T07:15:42.398Z,7.00
2023-03-29T07:18:41.469Z,7.00
2023-03-29T07:21:30.938Z,7.10
2023-03-29T07:24:21.318Z,7.10
2023-03-29T07:27:10.859Z,7.10
2023-03-29T07:29:59.380Z,7.20
2023-03-29T07:32:48.347Z,7.20
2023-03-29T07:35:48.078Z,7.20
2023-03-29T07:38:37.818Z,7.30
2023-03-29T07:41:33.861Z,7.30
2023-03-29T07:44:29.451Z,7.30
2023-03-29T07:47:17.949Z,7.40
2023-03-29T07:50:08.527Z,7.40
2023-03-29T07:52:57.873Z,7.50
2023-03-29T07:55:49.072Z,7.50
2023-03-29T07:59:11.558Z,7.60
2023-03-29T08:02:01.643Z,7.60
2023-03-29T08:04:56.802Z,7.70
2023-03-29T08:08:04.580Z,7.80
2023-03-29T08:11:06.354Z,7.90
2023-03-29T08:14:05.082Z,7.90
2023-03-29T08:17:13.649Z,8.00
2023-03-29T08:20:12.679Z,8.10
2023-03-29T08:23:04.637Z,8.20
2023-03-29T08:26:17.089Z,8.30
2023-03-29T08:29:05.604Z,8.40
2023-03-29T08:31:56.270Z,8.40
2023-03-29T08:34:46.888Z,8.50
2023-03-29T08:37:58.475Z,8.50
2023-03-29T08:40:50.084Z,8.60
2023-03-29T08:44:04.168Z,8.70
2023-03-29T08:47:24.063Z,8.80
2023-03-29T08:50:15.787Z,8.90
2023-03-29T08:53:18.457Z,8.90
2023-03-29T08:56:33.555Z,9.00
2023-03-29T08:59:45.145Z,9.10
2023-03-29T09:02:36.600Z,9.20
2023-03-29T09:05:36.246Z,9.20
2023-03-29T09:08:48.982Z,9.30
2023-03-29T09:11:58.507Z,9.40
2023-03-29T09:15:08.458Z,9.40
2023-03-29T09:18:12.654Z,9.50
2023-03-29T09:21:17.234Z,9.50
2023-03-29T09:24:56.344Z,9.60
2023-03-29T09:27:52.484Z,9.60
2023-03-29T09:30:57.514Z,9.70
2023-03-29T09:33:53.258Z,9.80
2023-03-29T09:36:53.625Z,9.80
2023-03-29T09:39:42.469Z,9.90
2023-03-29T09:42:35.000Z,10.00
2023-03-29T09:45:24.190Z,10.00
2023-03-29T09:48:16.583Z,10.10
2023-03-29T09:51:13.871Z,10.10
2023-03-29T09:54:03.961Z,10.10
2023-03-29T09:57:20.553Z,10.10
2023-03-29T10:00:11.036Z,10.10
2023-03-29T10:03:02.657Z,10.10
2023-03-29T10:06:05.176Z,10.10
2023-03-29T10:08:57.748Z,10.10
2023-03-29T10:11:56.721Z,10.10
2023-03-29T10:14:51.529Z,10.10
2023-03-29T10:17:43.396Z,10.10
2023-03-29T10:20:36.216Z,10.20
2023-03-29T10:23:24.703Z,10.20
2023-03-29T10:26:28.342Z,10.20
2023-03-29T10:29:18.322Z,10.20
2023-03-29T10:32:17.359Z,10.20
2023-03-29T10:35:16.336Z,10.20
2023-03-29T10:38:11.053Z,10.20
2023-03-29T10:41:07.985Z,10.20
2023-03-29T10:43:56.628Z,10.20
2023-03-29T10:46:46.499Z,10.20
2023-03-29T10:49:42.592Z,10.20
2023-03-29T10:52:31.429Z,10.30
2023-03-29T10:55:23.177Z,10.30
2023-03-29T10:58:31.885Z,10.30
2023-03-29T11:01:31.635Z,10.30
2023-03-29T11:04:35.315Z,10.30
2023-03-29T11:07:35.025Z,10.30
2023-03-29T11:10:42.374Z,10.40
2023-03-29T11:13:42.876Z,10.40
2023-03-29T11:16:43.240Z,10.50
2023-03-29T11:20:04.424Z,10.50
2023-03-29T11:23:08.250Z,10.50
2023-03-29T11:26:14.024Z,10.60
2023-03-29T11:29:10.986Z,10.70
2023-03-29T11:32:15.799Z,10.70
2023-03-29T11:35:27.146Z,10.70
2023-03-29T11:38:35.184Z,10.80
2023-03-29T11:41:48.667Z,10.90
2023-03-29T11:45:06.016Z,11.00
2023-03-29T11:51:19.924Z,11.10
2023-03-29T11:54:27.027Z,11.20
2023-03-29T11:57:27.273Z,11.30
2023-03-29T12:00:24.100Z,11.40
2023-03-29T12:03:49.255Z,11.50
2023-03-29T12:07:09.966Z,11.60
2023-03-29T12:10:12.147Z,11.60
2023-03-29T12:13:41.382Z,11.60
2023-03-29T12:17:13.692Z,11.70
2023-03-29T12:20:21.318Z,11.80
2023-03-29T12:23:17.607Z,11.90
2023-03-29T12:26:20.523Z,12.00
2023-03-29T12:29:29.690Z,12.00
2023-03-29T12:32:42.948Z,12.00
2023-03-29T12:36:24.805Z,12.10
2023-03-29T12:39:31.327Z,12.10
2023-03-29T12:42:47.843Z,12.10
2023-03-29T12:46:02.097Z,12.20
2023-03-29T12:48:57.082Z,12.20
2023-03-29T12:51:45.889Z,12.30
2023-03-29T12:54:38.893Z,12.30
2023-03-29T12:57:50.038Z,12.40
2023-03-29T13:00:48.028Z,12.40
2023-03-29T13:03:49.273Z,12.50
2023-03-29T13:07:03.173Z,12.50
2023-03-29T13:09:56.504Z,12.60
2023-03-29T13:12:47.312Z,12.70
2023-03-29T13:15:38.445Z,12.70
2023-03-29T13:18:49.332Z,12.70
2023-03-29T13:21:55.702Z,12.80
2023-03-29T13:25:10.345Z,12.80
2023-03-29T13:28:12.310Z,12.90
2023-03-29T13:31:08.679Z,12.90
2023-03-29T13:34:59.903Z,12.90
2023-03-29T13:38:06.988Z,12.90
2023-03-29T13:41:04.056Z,12.90
2023-03-29T13:48:49.311Z,13.00
2023-03-29T13:52:34.837Z,13.10
2023-03-29T13:55:54.191Z,13.10
2023-03-29T13:58:49.158Z,13.20
2023-03-29T14:01:55.836Z,13.30
2023-03-29T14:04:50.961Z,13.40
2023-03-29T14:07:45.101Z,13.40
2023-03-29T14:10:43.671Z,13.50
2023-03-29T14:13:32.588Z,13.50
2023-03-29T14:16:23.265Z,13.60
2023-03-29T14:19:18.873Z,13.70
2023-03-29T14:22:15.853Z,13.70
2023-03-29T14:25:15.408Z,13.80
2023-03-29T14:28:50.751Z,13.90
2023-03-29T14:31:43.351Z,13.90
2023-03-29T14:34:34.978Z,13.90
2023-03-29T14:37:28.587Z,13.90
2023-03-29T14:40:21.908Z,13.90
2023-03-29T14:43:11.123Z,13.90
2023-03-29T14:46:03.491Z,13.90
2023-03-29T14:48:53.914Z,13.90
2023-03-29T14:51:42.571Z,13.90
2023-03-29T14:54:36.104Z,13.90
2023-03-29T14:57:28.399Z,13.90
2023-03-29T15:00:30.058Z,13.90
2023-03-29T15:03:22.743Z,14.00
2023-03-29T15:06:14.104Z,14.00
2023-03-29T15:09:06.727Z,14.00
2023-03-29T15:12:00.580Z,14.10
2023-03-29T15:14:52.295Z,14.10
2023-03-29T15:17:50.853Z,14.20
2023-03-29T15:20:42.358Z,14.20
2023-03-29T15:23:39.498Z,14.30
2023-03-29T15:26:36.677Z,14.30
2023-03-29T15:29:25.948Z,14.40
2023-03-29T15:32:24.133Z,14.30
2023-03-29T15:35:24.411Z,14.40
2023-03-29T15:38:14.128Z,14.40
2023-03-29T15:41:05.074Z,14.50
2023-03-29T15:43:53.735Z,14.40
2023-03-29T15:46:42.249Z,14.50
2023-03-29T15:49:30.812Z,14.50
2023-03-29T15:52:19.231Z,14.50
2023-03-29T15:55:09.480Z,14.50
2023-03-29T15:57:59.562Z,14.50
2023-03-29T16:00:54.300Z,14.40
2023-03-29T16:03:46.273Z,14.40
2023-03-29T16:06:36.497Z,14.40
2023-03-29T16:09:27.249Z,14.50
2023-03-29T16:12:16.141Z,14.50
2023-03-29T16:15:16.216Z,14.50
2023-03-29T16:18:04.972Z,14.50
2023-03-29T16:20:53.381Z,14.40
2023-03-29T16:23:42.895Z,14.40
2023-03-29T16:26:32.562Z,14.40
2023-03-29T16:29:21.186Z,14.40
2023-03-29T16:32:11.978Z,14.40
2023-03-29T16:35:00.559Z,14.40
2023-03-29T16:37:48.920Z,14.40
2023-03-29T16:40:38.313Z,14.40
2023-03-29T16:43:26.762Z,14.50
2023-03-29T16:46:15.593Z,14.40
2023-03-29T16:49:08.026Z,14.50
2023-03-29T16:51:57.081Z,14.50
2023-03-29T16:54:45.610Z,14.50
2023-03-29T16:57:34.335Z,14.50
2023-03-29T17:00:23.506Z,14.50
2023-03-29T17:03:11.901Z,14.50
2023-03-29T17:06:03.414Z,14.40
2023-03-29T17:08:51.944Z,14.40
2023-03-29T17:11:41.332Z,14.30
2023-03-29T17:14:29.795Z,14.20
2023-03-29T17:17:18.330Z,14.10
2023-03-29T17:20:11.761Z,14.10
2023-03-29T17:23:01.618Z,14.10
2023-03-29T17:25:50.561Z,14.00
2023-03-29T17:28:39.004Z,14.00
2023-03-29T17:31:27.676Z,14.00
2023-03-29T17:34:17.228Z,14.00
2023-03-29T17:37:05.631Z,13.90
2023-03-29T17:39:55.588Z,13.90
2023-03-29T17:42:46.362Z,13.80
2023-03-29T17:45:35.570Z,13.80
2023-03-29T17:48:25.618Z,13.80
2023-03-29T17:51:14.140Z,13.70
2023-03-29T17:54:03.893Z,13.70
2023-03-29T17:56:53.717Z,13.70
2023-03-29T17:59:42.308Z,13.60
2023-03-29T18:02:30.916Z,13.60
2023-03-29T18:05:19.666Z,13.60
2023-03-29T18:08:08.934Z,13.60
2023-03-29T18:11:06.684Z,13.60
2023-03-29T18:14:00.639Z,13.50
2023-03-29T18:16:49.312Z,13.50
2023-03-29T18:19:37.871Z,13.50
2023-03-29T18:22:26.634Z,13.50
2023-03-29T18:25:18.226Z,13.50
2023-03-29T18:28:06.962Z,13.60
2023-03-29T18:30:56.843Z,13.60
2023-03-29T18:33:45.442Z,13.60
2023-03-29T18:36:34.456Z,13.70
2023-03-29T18:39:23.045Z,13.70
2023-03-29T18:42:12.431Z,13.70
2023-03-29T18:45:01.236Z,13.70
2023-03-29T18:47:52.395Z,13.70
2023-03-29T18:50:44.699Z,13.70
2023-03-29T18:53:34.653Z,13.70
2023-03-29T18:56:23.991Z,13.60
2023-03-29T18:59:12.626Z,13.60
2023-03-29T19:02:02.683Z,13.60
2023-03-29T19:04:52.597Z,13.50
2023-03-29T19:07:41.396Z,13.50
2023-03-29T19:10:29.882Z,13.50
2023-03-29T19:13:18.661Z,13.40
2023-03-29T19:16:08.148Z,13.40
2023-03-29T19:18:57.180Z,13.40
2023-03-29T19:21:48.012Z,13.40
2023-03-29T19:24:36.837Z,13.30
2023-03-29T19:27:25.364Z,13.30
2023-03-29T19:30:15.239Z,13.30
2023-03-29T19:33:03.770Z,13.30
2023-03-29T19:35:53.000Z,13.30
2023-03-29T19:38:44.856Z,13.30
2023-03-29T19:41:46.733Z,13.30
2023-03-29T19:44:38.218Z,13.30
2023-03-29T19:47:27.029Z,13.20
2023-03-29T19:50:15.782Z,13.20
2023-03-29T19:53:04.797Z,13.20
2023-03-29T19:55:54.955Z,13.20
2023-03-29T19:58:43.874Z,13.30
2023-03-29T20:01:33.634Z,13.30
2023-03-29T20:04:24.586Z,13.30
2023-03-29T20:07:13.782Z,13.30
2023-03-29T20:10:02.500Z,13.30
2023-03-29T20:12:52.960Z,13.30
2023-03-29T20:15:41.474Z,13.40
2023-03-29T20:18:29.994Z,13.40
2023-03-29T20:21:18.779Z,13.40
2023-03-29T20:24:09.110Z,13.40
2023-03-29T20:26:57.874Z,13.30
2023-03-29T20:29:47.766Z,13.30
2023-03-29T20:32:36.641Z,13.30
2023-03-29T20:35:26.026Z,13.30
2023-03-29T20:38:17.208Z,13.30
2023-03-29T20:41:08.923Z,13.30
2023-03-29T20:43:59.426Z,13.30
2023-03-29T20:47:02.366Z,13.30
2023-03-29T20:49:54.379Z,13.30
2023-03-29T20:52:43.223Z,13.30
2023-03-29T20:55:33.174Z,13.30
2023-03-29T20:58:21.980Z,13.30
2023-03-29T21:01:12.310Z,13.30
2023-03-29T21:04:02.652Z,13.30
2023-03-29T21:08:19.112Z,13.30
2023-03-29T21:11:22.124Z,13.30
2023-03-29T21:14:14.736Z,13.30
2023-03-29T21:17:03.404Z,13.20
2023-03-29T21:19:53.436Z,13.20
2023-03-29T21:22:44.159Z,13.20
2023-03-29T21:25:32.823Z,13.20
2023-03-29T21:28:21.579Z,13.20
2023-03-29T21:31:10.757Z,13.10
2023-03-29T21:34:12.020Z,13.10
2023-03-29T21:37:15.396Z,13.10
2023-03-29T21:40:13.663Z,13.10
2023-03-29T21:43:02.271Z,13.10
2023-03-29T21:45:51.648Z,13.00
2023-03-29T21:48:52.281Z,13.00
2023-03-29T21:52:06.444Z,13.00
2023-03-29T21:54:56.607Z,13.00
2023-03-29T21:57:45.788Z,12.90
2023-03-29T22:00:40.594Z,12.90
2023-03-29T22:03:32.115Z,12.90
2023-03-29T22:06:23.555Z,12.90
2023-03-29T22:09:49.951Z,12.90
2023-03-29T22:12:41.420Z,12.90
2023-03-29T22:15:35.480Z,12.90
2023-03-29T22:18:24.035Z,12.90
2023-03-29T22:21:15.446Z,12.90
2023-03-29T22:24:04.538Z,12.90
2023-03-29T22:26:53.393Z,12.90
2023-03-29T22:29:43.325Z,12.80
2023-03-29T22:32:39.091Z,12.90
2023-03-29T22:35:29.080Z,12.80
2023-03-29T22:38:17.717Z,12.80
2023-03-29T22:41:06.658Z,12.80
2023-03-29T22:44:04.265Z,12.80
2023-03-29T22:46:56.114Z,12.70
2023-03-29T22:49:44.918Z,12.80
2023-03-29T22:52:33.643Z,12.70
2023-03-29T22:55:22.289Z,12.70
2023-03-29T22:58:11.142Z,12.70
2023-03-29T23:01:02.067Z,12.70
2023-03-29T23:03:52.506Z,12.70
2023-03-29T23:07:12.737Z,12.60
2023-03-29T23:10:09.967Z,12.60
2023-03-29T23:13:08.590Z,12.60
2023-03-29T23:16:00.055Z,12.60
2023-03-29T23:18:49.260Z,12.50
2023-03-29T23:21:39.593Z,12.50
2023-03-29T23:24:30.354Z,12.50
2023-03-29T23:27:19.600Z,12.50
2023-03-29T23:30:10.780Z,12.50
2023-03-29T23:33:00.077Z,12.50
2023-03-29T23:35:48.962Z,12.50
2023-03-29T23:38:40.449Z,12.50
2023-03-29T23:41:30.481Z,12.50
2023-03-29T23:44:19.295Z,12.50
2023-03-29T23:47:09.187Z,12.50
2023-03-29T23:49:57.887Z,12.50
2023-03-29T23:52:47.129Z,12.50
2023-03-29T23:55:51.144Z,12.50
2023-03-29T23:58:39.964Z,12.40
